sensor_id;sensor_type;location;lat;lon;timestamp;pressure;altitude;pressure_sealevel;temperature;humidity
45327;BME280;31062;49.678;24.560;2024-03-29T00:01:57;96830.81;;;9.95;82.40
45327;BME280;31062;49.678;24.560;2024-03-29T00:04:42;96831.19;;;9.90;82.94
45327;BME280;31062;49.678;24.560;2024-03-29T00:07:26;96819.16;;;9.85;82.93
45327;BME280;31062;49.678;24.560;2024-03-29T00:10:11;96777.84;;;9.52;83.25
45327;BME280;31062;49.678;24.560;2024-03-29T00:12:56;96824.00;;;9.73;83.27
45327;BME280;31062;49.678;24.560;2024-03-29T00:15:40;96820.41;;;9.70;83.17
45327;BME280;31062;49.678;24.560;2024-03-29T00:18:25;96819.69;;;9.70;83.32
45327;BME280;31062;49.678;24.560;2024-03-29T00:21:11;96803.06;;;9.70;83.74
45327;BME280;31062;49.678;24.560;2024-03-29T00:23:56;96808.63;;;9.70;83.77
45327;BME280;31062;49.678;24.560;2024-03-29T00:26:41;96800.31;;;9.70;83.59
45327;BME280;31062;49.678;24.560;2024-03-29T00:29:25;96794.16;;;9.71;83.76
45327;BME280;31062;49.678;24.560;2024-03-29T00:32:11;96781.66;;;9.70;83.74
45327;BME280;31062;49.678;24.560;2024-03-29T00:34:56;96785.03;;;9.69;83.75
45327;BME280;31062;49.678;24.560;2024-03-29T00:37:42;96771.78;;;9.67;83.94
45327;BME280;31062;49.678;24.560;2024-03-29T00:40:27;96773.97;;;9.69;83.73
45327;BME280;31062;49.678;24.560;2024-03-29T00:43:12;96778.06;;;9.68;83.81
45327;BME280;31062;49.678;24.560;2024-03-29T00:45:57;96771.06;;;9.67;84.00
45327;BME280;31062;49.678;24.560;2024-03-29T00:51:49;96760.00;;;9.67;84.24
45327;BME280;31062;49.678;24.560;2024-03-29T00:54:54;96759.19;;;9.64;84.55
45327;BME280;31062;49.678;24.560;2024-03-29T00:57:59;96755.69;;;9.64;84.62
45327;BME280;31062;49.678;24.560;2024-03-29T01:00:44;96750.16;;;9.64;84.49
45327;BME280;31062;49.678;24.560;2024-03-29T01:03:48;96737.66;;;9.63;84.48
45327;BME280;31062;49.678;24.560;2024-03-29T01:06:32;96733.31;;;9.60;84.59
45327;BME280;31062;49.678;24.560;2024-03-29T01:09:33;96728.28;;;9.56;85.20
45327;BME280;31062;49.678;24.560;2024-03-29T01:12:38;96738.63;;;9.56;84.98
45327;BME280;31062;49.678;24.560;2024-03-29T01:15:43;96737.06;;;9.53;84.96
45327;BME280;31062;49.678;24.560;2024-03-29T01:18:27;96738.41;;;9.52;85.43
45327;BME280;31062;49.678;24.560;2024-03-29T01:21:13;96724.44;;;9.50;85.45
45327;BME280;31062;49.678;24.560;2024-03-29T01:23:58;96717.47;;;9.49;85.93
45327;BME280;31062;49.678;24.560;2024-03-29T01:26:42;96707.63;;;9.46;85.80
45327;BME280;31062;49.678;24.560;2024-03-29T01:29:27;96713.16;;;9.46;86.20
45327;BME280;31062;49.678;24.560;2024-03-29T01:32:12;96709.78;;;9.47;86.03
45327;BME280;31062;49.678;24.560;2024-03-29T01:34:56;96705.97;;;9.40;86.15
45327;BME280;31062;49.678;24.560;2024-03-29T01:37:41;96710.38;;;9.46;86.13
45327;BME280;31062;49.678;24.560;2024-03-29T01:40:26;96704.94;;;9.48;86.48
45327;BME280;31062;49.678;24.560;2024-03-29T01:43:11;96700.88;;;9.49;86.26
45327;BME280;31062;49.678;24.560;2024-03-29T01:45:56;96705.06;;;9.50;86.66
45327;BME280;31062;49.678;24.560;2024-03-29T01:48:41;96722.41;;;9.50;86.92
45327;BME280;31062;49.678;24.560;2024-03-29T01:51:26;96690.09;;;9.41;86.87
45327;BME280;31062;49.678;24.560;2024-03-29T01:54:11;96714.94;;;9.53;86.79
45327;BME280;31062;49.678;24.560;2024-03-29T01:56:57;96705.19;;;9.52;86.96
45327;BME280;31062;49.678;24.560;2024-03-29T02:00:04;96720.56;;;9.55;86.93
45327;BME280;31062;49.678;24.560;2024-03-29T02:03:10;96723.59;;;9.59;86.90
45327;BME280;31062;49.678;24.560;2024-03-29T02:06:15;96702.78;;;9.58;86.42
45327;BME280;31062;49.678;24.560;2024-03-29T02:09:20;96695.19;;;9.58;86.89
45327;BME280;31062;49.678;24.560;2024-03-29T02:12:24;96699.66;;;9.52;86.41
45327;BME280;31062;49.678;24.560;2024-03-29T02:15:29;96704.44;;;9.63;86.50
45327;BME280;31062;49.678;24.560;2024-03-29T02:18:34;96704.06;;;9.68;86.23
45327;BME280;31062;49.678;24.560;2024-03-29T02:21:46;96695.97;;;9.72;86.02
45327;BME280;31062;49.678;24.560;2024-03-29T02:24:52;96694.06;;;9.75;85.95
45327;BME280;31062;49.678;24.560;2024-03-29T02:27:59;96680.34;;;9.77;86.09
45327;BME280;31062;49.678;24.560;2024-03-29T02:31:05;96688.88;;;9.81;86.08
45327;BME280;31062;49.678;24.560;2024-03-29T02:34:10;96690.41;;;9.84;85.57
45327;BME280;31062;49.678;24.560;2024-03-29T02:37:15;96673.56;;;9.80;85.15
45327;BME280;31062;49.678;24.560;2024-03-29T02:40:20;96692.78;;;9.90;85.26
45327;BME280;31062;49.678;24.560;2024-03-29T02:43:24;96691.38;;;9.89;85.39
45327;BME280;31062;49.678;24.560;2024-03-29T02:46:29;96694.81;;;9.89;85.47
45327;BME280;31062;49.678;24.560;2024-03-29T02:49:34;96685.09;;;9.88;85.18
45327;BME280;31062;49.678;24.560;2024-03-29T02:52:39;96682.22;;;9.86;85.47
45327;BME280;31062;49.678;24.560;2024-03-29T02:55:44;96675.88;;;9.72;85.17
45327;BME280;31062;49.678;24.560;2024-03-29T02:58:51;96690.41;;;9.59;86.43
45327;BME280;31062;49.678;24.560;2024-03-29T03:01:55;96698.44;;;9.55;86.69
45327;BME280;31062;49.678;24.560;2024-03-29T03:05:00;96694.84;;;9.52;87.10
45327;BME280;31062;49.678;24.560;2024-03-29T03:08:05;96697.00;;;9.54;87.46
45327;BME280;31062;49.678;24.560;2024-03-29T03:11:09;96694.84;;;9.52;87.01
45327;BME280;31062;49.678;24.560;2024-03-29T03:14:14;96705.47;;;9.44;87.43
45327;BME280;31062;49.678;24.560;2024-03-29T03:17:21;96715.31;;;9.35;87.86
45327;BME280;31062;49.678;24.560;2024-03-29T03:20:26;96694.41;;;9.32;88.50
45327;BME280;31062;49.678;24.560;2024-03-29T03:23:33;96727.22;;;9.38;88.41
45327;BME280;31062;49.678;24.560;2024-03-29T03:26:38;96711.00;;;9.32;88.96
45327;BME280;31062;49.678;24.560;2024-03-29T03:29:43;96723.28;;;9.29;89.36
45327;BME280;31062;49.678;24.560;2024-03-29T03:32:48;96726.66;;;9.28;89.45
45327;BME280;31062;49.678;24.560;2024-03-29T03:35:52;96688.69;;;9.05;89.53
45327;BME280;31062;49.678;24.560;2024-03-29T03:38:37;96731.47;;;9.27;89.73
45327;BME280;31062;49.678;24.560;2024-03-29T03:41:41;96740.72;;;9.32;89.71
45327;BME280;31062;49.678;24.560;2024-03-29T03:44:26;96747.09;;;9.34;89.49
45327;BME280;31062;49.678;24.560;2024-03-29T03:47:13;96758.38;;;9.38;89.81
45327;BME280;31062;49.678;24.560;2024-03-29T03:49:58;96767.03;;;9.45;89.54
45327;BME280;31062;49.678;24.560;2024-03-29T03:52:43;96772.19;;;9.50;88.81
45327;BME280;31062;49.678;24.560;2024-03-29T03:55:27;96777.13;;;9.52;88.69
45327;BME280;31062;49.678;24.560;2024-03-29T03:58:12;96764.84;;;9.55;88.71
45327;BME280;31062;49.678;24.560;2024-03-29T04:00:56;96758.84;;;9.58;89.00
45327;BME280;31062;49.678;24.560;2024-03-29T04:03:41;96758.34;;;9.62;88.37
45327;BME280;31062;49.678;24.560;2024-03-29T04:06:26;96762.31;;;9.59;88.37
45327;BME280;31062;49.678;24.560;2024-03-29T04:09:14;96783.34;;;9.64;88.17
45327;BME280;31062;49.678;24.560;2024-03-29T04:12:00;96795.88;;;9.65;88.04
45327;BME280;31062;49.678;24.560;2024-03-29T04:14:45;96815.34;;;9.67;87.90
45327;BME280;31062;49.678;24.560;2024-03-29T04:17:30;96823.53;;;9.65;87.88
45327;BME280;31062;49.678;24.560;2024-03-29T04:20:34;96832.81;;;9.58;87.60
45327;BME280;31062;49.678;24.560;2024-03-29T04:23:19;96836.53;;;9.51;87.91
45327;BME280;31062;49.678;24.560;2024-03-29T04:26:03;96839.19;;;9.49;88.23
45327;BME280;31062;49.678;24.560;2024-03-29T04:28:48;96854.31;;;9.48;88.16
45327;BME280;31062;49.678;24.560;2024-03-29T04:31:34;96854.31;;;9.48;87.95
45327;BME280;31062;49.678;24.560;2024-03-29T04:34:19;96859.84;;;9.48;87.01
45327;BME280;31062;49.678;24.560;2024-03-29T04:37:03;96865.88;;;9.44;87.07
45327;BME280;31062;49.678;24.560;2024-03-29T04:39:49;96870.69;;;9.43;86.96
45327;BME280;31062;49.678;24.560;2024-03-29T04:42:34;96871.66;;;9.36;87.46
45327;BME280;31062;49.678;24.560;2024-03-29T04:45:39;96884.75;;;9.48;87.65
45327;BME280;31062;49.678;24.560;2024-03-29T04:48:24;96902.78;;;9.49;87.56
45327;BME280;31062;49.678;24.560;2024-03-29T04:51:09;96904.84;;;9.48;87.50
45327;BME280;31062;49.678;24.560;2024-03-29T04:53:54;96919.28;;;9.47;87.50
45327;BME280;31062;49.678;24.560;2024-03-29T04:56:38;96924.56;;;9.42;86.90
45327;BME280;31062;49.678;24.560;2024-03-29T04:59:23;96936.56;;;9.35;86.76
45327;BME280;31062;49.678;24.560;2024-03-29T05:02:07;96927.94;;;9.29;86.18
45327;BME280;31062;49.678;24.560;2024-03-29T05:04:52;96968.31;;;9.23;86.36
45327;BME280;31062;49.678;24.560;2024-03-29T05:07:57;96954.84;;;9.17;86.51
45327;BME280;31062;49.678;24.560;2024-03-29T05:10:42;96972.94;;;9.09;86.00
45327;BME280;31062;49.678;24.560;2024-03-29T05:13:26;96984.22;;;9.01;86.43
45327;BME280;31062;49.678;24.560;2024-03-29T05:16:11;96992.13;;;8.95;86.86
45327;BME280;31062;49.678;24.560;2024-03-29T05:18:56;97008.44;;;8.91;87.15
45327;BME280;31062;49.678;24.560;2024-03-29T05:21:41;97008.06;;;8.85;88.36
45327;BME280;31062;49.678;24.560;2024-03-29T05:24:26;97034.44;;;8.76;88.03
45327;BME280;31062;49.678;24.560;2024-03-29T05:27:14;97028.22;;;8.76;88.86
45327;BME280;31062;49.678;24.560;2024-03-29T05:29:59;97060.50;;;8.73;89.20
45327;BME280;31062;49.678;24.560;2024-03-29T05:33:05;97074.97;;;8.62;87.35
45327;BME280;31062;49.678;24.560;2024-03-29T05:35:51;97000.25;;;7.67;88.25
45327;BME280;31062;49.678;24.560;2024-03-29T05:38:36;97123.78;;;8.38;89.87
45327;BME280;31062;49.678;24.560;2024-03-29T05:41:21;97117.28;;;8.34;90.17
45327;BME280;31062;49.678;24.560;2024-03-29T05:44:06;97143.56;;;8.25;87.38
45327;BME280;31062;49.678;24.560;2024-03-29T05:46:51;97168.44;;;8.15;85.42
45327;BME280;31062;49.678;24.560;2024-03-29T05:49:56;97183.44;;;8.03;85.77
45327;BME280;31062;49.678;24.560;2024-03-29T05:52:41;97200.88;;;7.96;85.54
45327;BME280;31062;49.678;24.560;2024-03-29T05:55:25;97209.44;;;7.80;84.72
45327;BME280;31062;49.678;24.560;2024-03-29T05:58:10;97217.44;;;7.76;85.99
45327;BME280;31062;49.678;24.560;2024-03-29T06:00:54;97236.88;;;7.69;85.88
45327;BME280;31062;49.678;24.560;2024-03-29T06:03:39;97228.78;;;7.61;87.04
45327;BME280;31062;49.678;24.560;2024-03-29T06:06:24;97257.50;;;7.58;87.84
45327;BME280;31062;49.678;24.560;2024-03-29T06:09:09;97251.69;;;7.54;87.14
45327;BME280;31062;49.678;24.560;2024-03-29T06:11:55;97243.84;;;7.41;86.69
45327;BME280;31062;49.678;24.560;2024-03-29T06:15:00;97255.59;;;7.42;86.72
45327;BME280;31062;49.678;24.560;2024-03-29T06:18:04;97168.09;;;6.67;86.71
45327;BME280;31062;49.678;24.560;2024-03-29T06:20:49;97279.22;;;7.35;86.32
45327;BME280;31062;49.678;24.560;2024-03-29T06:23:33;97284.75;;;7.35;86.51
45327;BME280;31062;49.678;24.560;2024-03-29T06:26:18;97309.72;;;7.37;87.29
45327;BME280;31062;49.678;24.560;2024-03-29T06:29:03;97319.72;;;7.32;87.66
45327;BME280;31062;49.678;24.560;2024-03-29T06:31:48;97349.22;;;7.49;87.63
45327;BME280;31062;49.678;24.560;2024-03-29T06:34:32;97362.59;;;7.53;86.78
45327;BME280;31062;49.678;24.560;2024-03-29T06:37:37;97380.31;;;7.59;86.50
45327;BME280;31062;49.678;24.560;2024-03-29T06:40:22;97394.28;;;7.61;86.47
45327;BME280;31062;49.678;24.560;2024-03-29T06:43:07;97393.25;;;7.66;86.74
45327;BME280;31062;49.678;24.560;2024-03-29T06:45:53;97407.34;;;7.70;84.98
45327;BME280;31062;49.678;24.560;2024-03-29T06:48:38;97418.72;;;7.74;85.18
45327;BME280;31062;49.678;24.560;2024-03-29T06:51:43;97428.16;;;7.81;85.46
45327;BME280;31062;49.678;24.560;2024-03-29T06:54:27;97437.59;;;7.88;85.86
45327;BME280;31062;49.678;24.560;2024-03-29T06:57:13;97457.53;;;7.96;85.70
45327;BME280;31062;49.678;24.560;2024-03-29T07:00:03;97460.91;;;8.04;85.76
45327;BME280;31062;49.678;24.560;2024-03-29T07:02:47;97468.47;;;8.13;86.04
45327;BME280;31062;49.678;24.560;2024-03-29T07:05:51;97471.97;;;8.23;86.01
45327;BME280;31062;49.678;24.560;2024-03-29T07:08:36;97489.91;;;8.32;84.99
45327;BME280;31062;49.678;24.560;2024-03-29T07:11:21;97509.69;;;8.38;84.11
45327;BME280;31062;49.678;24.560;2024-03-29T07:14:06;97509.25;;;8.41;84.12
45327;BME280;31062;49.678;24.560;2024-03-29T07:17:11;97491.38;;;8.42;84.02
45327;BME280;31062;49.678;24.560;2024-03-29T07:19:55;97480.63;;;8.46;83.88
45327;BME280;31062;49.678;24.560;2024-03-29T07:22:40;97502.47;;;8.52;83.81
45327;BME280;31062;49.678;24.560;2024-03-29T07:25:25;97531.09;;;8.56;84.09
45327;BME280;31062;49.678;24.560;2024-03-29T07:28:13;97552.03;;;8.59;82.83
45327;BME280;31062;49.678;24.560;2024-03-29T07:31:05;97444.88;;;7.93;83.05
45327;BME280;31062;49.678;24.560;2024-03-29T07:34:13;97543.91;;;8.62;82.87
45327;BME280;31062;49.678;24.560;2024-03-29T07:37:19;97549.59;;;8.64;82.80
45327;BME280;31062;49.678;24.560;2024-03-29T07:40:04;97538.97;;;8.70;83.42
45327;BME280;31062;49.678;24.560;2024-03-29T07:42:49;97538.41;;;8.81;82.77
45327;BME280;31062;49.678;24.560;2024-03-29T07:45:53;97565.75;;;8.96;83.85
45327;BME280;31062;49.678;24.560;2024-03-29T07:48:57;97558.94;;;9.16;82.88
45327;BME280;31062;49.678;24.560;2024-03-29T07:51:58;97431.19;;;8.41;81.46
45327;BME280;31062;49.678;24.560;2024-03-29T07:54:44;97563.72;;;9.35;81.38
45327;BME280;31062;49.678;24.560;2024-03-29T07:57:28;97579.28;;;9.50;80.47
45327;BME280;31062;49.678;24.560;2024-03-29T08:00:13;97582.75;;;9.60;80.60
45327;BME280;31062;49.678;24.560;2024-03-29T08:03:01;97589.03;;;9.70;79.97
45327;BME280;31062;49.678;24.560;2024-03-29T08:06:02;97577.50;;;9.83;78.60
45327;BME280;31062;49.678;24.560;2024-03-29T08:09:06;97577.28;;;10.00;79.27
45327;BME280;31062;49.678;24.560;2024-03-29T08:11:51;97591.22;;;10.21;79.65
45327;BME280;31062;49.678;24.560;2024-03-29T08:14:55;97602.34;;;10.43;77.51
45327;BME280;31062;49.678;24.560;2024-03-29T08:17:40;97571.25;;;10.54;76.88
45327;BME280;31062;49.678;24.560;2024-03-29T08:20:25;97585.00;;;10.73;75.52
45327;BME280;31062;49.678;24.560;2024-03-29T08:23:29;97587.66;;;10.92;75.52
45327;BME280;31062;49.678;24.560;2024-03-29T08:26:34;97591.59;;;11.11;75.22
45327;BME280;31062;49.678;24.560;2024-03-29T08:29:19;97602.16;;;11.24;73.82
45327;BME280;31062;49.678;24.560;2024-03-29T08:32:04;97605.47;;;11.32;73.10
45327;BME280;31062;49.678;24.560;2024-03-29T08:34:51;97612.13;;;11.38;73.18
45327;BME280;31062;49.678;24.560;2024-03-29T08:37:56;97618.44;;;11.51;73.73
45327;BME280;31062;49.678;24.560;2024-03-29T08:41:01;97599.28;;;11.55;72.91
45327;BME280;31062;49.678;24.560;2024-03-29T08:43:46;97606.84;;;11.75;72.55
45327;BME280;31062;49.678;24.560;2024-03-29T08:46:51;97605.69;;;11.90;72.37
45327;BME280;31062;49.678;24.560;2024-03-29T08:49:56;97600.41;;;12.06;72.04
45327;BME280;31062;49.678;24.560;2024-03-29T08:53:01;97594.88;;;12.17;69.96
45327;BME280;31062;49.678;24.560;2024-03-29T08:55:46;97599.97;;;12.21;69.43
45327;BME280;31062;49.678;24.560;2024-03-29T08:58:51;97616.75;;;12.35;68.83
45327;BME280;31062;49.678;24.560;2024-03-29T09:02:03;97612.28;;;12.41;67.43
45327;BME280;31062;49.678;24.560;2024-03-29T09:04:49;97609.88;;;12.47;67.92
45327;BME280;31062;49.678;24.560;2024-03-29T09:13:59;97620.63;;;12.64;64.66
45327;BME280;31062;49.678;24.560;2024-03-29T09:16:46;97610.59;;;12.71;64.60
45327;BME280;31062;49.678;24.560;2024-03-29T09:19:33;97610.22;;;12.77;61.04
45327;BME280;31062;49.678;24.560;2024-03-29T09:22:38;97615.78;;;12.77;61.01
45327;BME280;31062;49.678;24.560;2024-03-29T09:25:43;97631.13;;;12.78;60.06
45327;BME280;31062;49.678;24.560;2024-03-29T09:28:47;97636.94;;;12.82;60.46
45327;BME280;31062;49.678;24.560;2024-03-29T09:31:32;97629.44;;;12.84;61.05
45327;BME280;31062;49.678;24.560;2024-03-29T09:34:17;97651.69;;;12.96;58.18
45327;BME280;31062;49.678;24.560;2024-03-29T09:37:01;97643.69;;;13.02;60.50
45327;BME280;31062;49.678;24.560;2024-03-29T09:39:47;97644.19;;;13.10;60.89
45327;BME280;31062;49.678;24.560;2024-03-29T09:42:32;97642.97;;;13.13;57.32
45327;BME280;31062;49.678;24.560;2024-03-29T09:45:37;97631.13;;;13.13;57.33
45327;BME280;31062;49.678;24.560;2024-03-29T09:48:44;97640.75;;;13.23;60.30
45327;BME280;31062;49.678;24.560;2024-03-29T09:51:49;97629.63;;;13.23;59.23
45327;BME280;31062;49.678;24.560;2024-03-29T09:54:34;97648.22;;;13.44;60.01
45327;BME280;31062;49.678;24.560;2024-03-29T09:57:39;97657.66;;;13.51;58.87
45327;BME280;31062;49.678;24.560;2024-03-29T10:00:44;97647.59;;;13.57;59.56
45327;BME280;31062;49.678;24.560;2024-03-29T10:03:49;97655.50;;;13.74;59.07
45327;BME280;31062;49.678;24.560;2024-03-29T10:06:57;97656.78;;;13.85;56.39
45327;BME280;31062;49.678;24.560;2024-03-29T10:10:02;97652.44;;;13.82;57.14
45327;BME280;31062;49.678;24.560;2024-03-29T10:13:07;97653.22;;;13.96;54.87
45327;BME280;31062;49.678;24.560;2024-03-29T10:16:12;97662.75;;;14.05;56.74
45327;BME280;31062;49.678;24.560;2024-03-29T10:19:00;97661.03;;;14.11;54.59
45327;BME280;31062;49.678;24.560;2024-03-29T10:22:06;97654.41;;;14.18;53.84
45327;BME280;31062;49.678;24.560;2024-03-29T10:25:15;97646.28;;;14.22;54.52
45327;BME280;31062;49.678;24.560;2024-03-29T10:28:20;97657.88;;;14.30;56.34
45327;BME280;31062;49.678;24.560;2024-03-29T10:31:24;97655.03;;;14.42;53.95
45327;BME280;31062;49.678;24.560;2024-03-29T10:34:29;97666.22;;;14.56;53.39
45327;BME280;31062;49.678;24.560;2024-03-29T10:37:36;97674.91;;;14.62;53.00
45327;BME280;31062;49.678;24.560;2024-03-29T10:40:41;97635.13;;;14.48;52.58
45327;BME280;31062;49.678;24.560;2024-03-29T10:43:26;97677.41;;;14.83;53.09
45327;BME280;31062;49.678;24.560;2024-03-29T10:46:12;97678.44;;;14.90;52.19
45327;BME280;31062;49.678;24.560;2024-03-29T10:49:18;97672.47;;;14.95;50.84
45327;BME280;31062;49.678;24.560;2024-03-29T10:52:24;97684.56;;;15.00;51.99
45327;BME280;31062;49.678;24.560;2024-03-29T10:55:33;97679.78;;;15.02;48.60
45327;BME280;31062;49.678;24.560;2024-03-29T10:58:40;97679.78;;;15.02;48.85
45327;BME280;31062;49.678;24.560;2024-03-29T11:01:52;97663.03;;;15.02;47.34
45327;BME280;31062;49.678;24.560;2024-03-29T11:05:02;97682.56;;;15.02;48.39
45327;BME280;31062;49.678;24.560;2024-03-29T11:08:09;97659.94;;;14.96;49.58
45327;BME280;31062;49.678;24.560;2024-03-29T11:11:14;97681.75;;;15.13;50.27
45327;BME280;31062;49.678;24.560;2024-03-29T11:14:42;97666.97;;;15.25;48.71
45327;BME280;31062;49.678;24.560;2024-03-29T11:17:47;97667.34;;;15.33;47.69
45327;BME280;31062;49.678;24.560;2024-03-29T11:20:54;97669.66;;;15.36;46.94
45327;BME280;31062;49.678;24.560;2024-03-29T11:24:03;97667.78;;;15.41;46.95
45327;BME280;31062;49.678;24.560;2024-03-29T11:27:11;97649.75;;;15.44;46.82
45327;BME280;31062;49.678;24.560;2024-03-29T11:30:19;97649.97;;;15.48;48.15
45327;BME280;31062;49.678;24.560;2024-03-29T11:36:34;97668.25;;;15.51;46.90
45327;BME280;31062;49.678;24.560;2024-03-29T11:39:39;97672.00;;;15.56;45.94
45327;BME280;31062;49.678;24.560;2024-03-29T11:42:44;97682.56;;;15.57;45.92
45327;BME280;31062;49.678;24.560;2024-03-29T11:45:49;97674.19;;;15.57;45.60
45327;BME280;31062;49.678;24.560;2024-03-29T11:48:54;97694.56;;;15.60;45.58
45327;BME280;31062;49.678;24.560;2024-03-29T11:52:05;97603.50;;;15.11;43.63
45327;BME280;31062;49.678;24.560;2024-03-29T11:55:11;97672.59;;;15.68;44.76
45327;BME280;31062;49.678;24.560;2024-03-29T11:58:16;97669.38;;;15.73;44.44
45327;BME280;31062;49.678;24.560;2024-03-29T12:01:21;97675.91;;;15.78;45.66
45327;BME280;31062;49.678;24.560;2024-03-29T12:04:25;97667.06;;;15.83;44.55
45327;BME280;31062;49.678;24.560;2024-03-29T12:07:10;97661.66;;;15.87;43.08
45327;BME280;31062;49.678;24.560;2024-03-29T12:09:56;97659.72;;;15.90;42.42
45327;BME280;31062;49.678;24.560;2024-03-29T12:12:41;97654.63;;;15.86;42.11
45327;BME280;31062;49.678;24.560;2024-03-29T12:15:45;97670.34;;;15.93;42.48
45327;BME280;31062;49.678;24.560;2024-03-29T12:18:50;97660.63;;;15.95;42.70
45327;BME280;31062;49.678;24.560;2024-03-29T12:21:55;97669.19;;;15.99;43.39
45327;BME280;31062;49.678;24.560;2024-03-29T12:25:00;97655.19;;;15.99;43.08
45327;BME280;31062;49.678;24.560;2024-03-29T12:28:05;97665.31;;;16.06;43.20
45327;BME280;31062;49.678;24.560;2024-03-29T12:30:54;97672.38;;;16.07;43.99
45327;BME280;31062;49.678;24.560;2024-03-29T12:33:39;97668.41;;;16.12;45.23
45327;BME280;31062;49.678;24.560;2024-03-29T12:36:24;97661.38;;;16.11;44.16
45327;BME280;31062;49.678;24.560;2024-03-29T12:39:13;97652.53;;;16.16;43.86
45327;BME280;31062;49.678;24.560;2024-03-29T12:41:58;97662.09;;;16.27;43.29
45327;BME280;31062;49.678;24.560;2024-03-29T12:44:45;97659.41;;;16.29;42.90
45327;BME280;31062;49.678;24.560;2024-03-29T12:47:30;97643.19;;;16.25;42.11
45327;BME280;31062;49.678;24.560;2024-03-29T12:50:35;97651.03;;;16.29;41.46
45327;BME280;31062;49.678;24.560;2024-03-29T12:53:39;97652.56;;;16.32;41.16
45327;BME280;31062;49.678;24.560;2024-03-29T12:56:44;97638.31;;;16.26;41.16
45327;BME280;31062;49.678;24.560;2024-03-29T12:59:49;97648.78;;;16.41;40.23
45327;BME280;31062;49.678;24.560;2024-03-29T13:02:54;97658.00;;;16.44;39.77
45327;BME280;31062;49.678;24.560;2024-03-29T13:05:59;97651.75;;;16.45;39.61
45327;BME280;31062;49.678;24.560;2024-03-29T13:09:04;97649.16;;;16.49;39.34
45327;BME280;31062;49.678;24.560;2024-03-29T13:11:51;97579.94;;;16.03;40.23
45327;BME280;31062;49.678;24.560;2024-03-29T13:14:36;97658.53;;;16.56;39.49
45327;BME280;31062;49.678;24.560;2024-03-29T13:17:40;97656.53;;;16.58;40.33
45327;BME280;31062;49.678;24.560;2024-03-29T13:20:44;97659.28;;;16.56;36.98
45327;BME280;31062;49.678;24.560;2024-03-29T13:23:49;97659.16;;;16.54;37.16
45327;BME280;31062;49.678;24.560;2024-03-29T13:26:54;97647.16;;;16.52;37.11
45327;BME280;31062;49.678;24.560;2024-03-29T13:29:58;97639.22;;;16.46;37.62
45327;BME280;31062;49.678;24.560;2024-03-29T13:33:03;97647.97;;;16.54;36.96
45327;BME280;31062;49.678;24.560;2024-03-29T13:36:08;97650.78;;;16.54;37.46
45327;BME280;31062;49.678;24.560;2024-03-29T13:39:16;97647.56;;;16.60;37.43
45327;BME280;31062;49.678;24.560;2024-03-29T13:42:21;97638.69;;;16.65;36.95
45327;BME280;31062;49.678;24.560;2024-03-29T13:45:26;97644.47;;;16.69;35.80
45327;BME280;31062;49.678;24.560;2024-03-29T13:48:31;97641.59;;;16.67;34.68
45327;BME280;31062;49.678;24.560;2024-03-29T13:51:36;97640.22;;;16.68;36.15
45327;BME280;31062;49.678;24.560;2024-03-29T13:54:44;97645.19;;;16.70;34.21
45327;BME280;31062;49.678;24.560;2024-03-29T13:57:49;97638.16;;;16.69;35.00
45327;BME280;31062;49.678;24.560;2024-03-29T14:00:53;97653.06;;;16.73;34.99
45327;BME280;31062;49.678;24.560;2024-03-29T14:03:58;97643.38;;;16.77;35.11
45327;BME280;31062;49.678;24.560;2024-03-29T14:07:03;97640.75;;;16.81;35.44
45327;BME280;31062;49.678;24.560;2024-03-29T14:10:10;97653.50;;;16.84;35.38
45327;BME280;31062;49.678;24.560;2024-03-29T14:13:14;97648.09;;;16.72;35.30
45327;BME280;31062;49.678;24.560;2024-03-29T14:16:18;97659.56;;;16.78;34.95
45327;BME280;31062;49.678;24.560;2024-03-29T14:19:03;97656.75;;;16.78;35.68
45327;BME280;31062;49.678;24.560;2024-03-29T14:21:48;97652.34;;;16.73;34.90
45327;BME280;31062;49.678;24.560;2024-03-29T14:24:53;97651.16;;;16.78;35.44
45327;BME280;31062;49.678;24.560;2024-03-29T14:27:59;97649.34;;;16.85;34.96
45327;BME280;31062;49.678;24.560;2024-03-29T14:31:04;97648.06;;;16.88;35.22
45327;BME280;31062;49.678;24.560;2024-03-29T14:34:10;97659.25;;;16.88;35.53
45327;BME280;31062;49.678;24.560;2024-03-29T14:37:15;97657.81;;;16.87;36.48
45327;BME280;31062;49.678;24.560;2024-03-29T14:40:19;97654.38;;;16.88;36.77
45327;BME280;31062;49.678;24.560;2024-03-29T14:43:24;97660.72;;;16.89;37.09
45327;BME280;31062;49.678;24.560;2024-03-29T14:46:28;97657.81;;;16.87;36.43
45327;BME280;31062;49.678;24.560;2024-03-29T14:49:33;97661.16;;;16.83;36.57
45327;BME280;31062;49.678;24.560;2024-03-29T14:52:17;97656.03;;;16.78;36.27
45327;BME280;31062;49.678;24.560;2024-03-29T14:55:02;97656.59;;;16.74;36.73
45327;BME280;31062;49.678;24.560;2024-03-29T14:57:47;97647.19;;;16.67;35.33
45327;BME280;31062;49.678;24.560;2024-03-29T15:00:32;97641.22;;;16.59;35.34
45327;BME280;31062;49.678;24.560;2024-03-29T15:03:17;97614.56;;;16.27;35.37
45327;BME280;31062;49.678;24.560;2024-03-29T15:06:22;97658.78;;;16.46;36.31
45327;BME280;31062;49.678;24.560;2024-03-29T15:09:27;97657.28;;;16.43;35.97
45327;BME280;31062;49.678;24.560;2024-03-29T15:12:31;97658.53;;;16.40;36.04
45327;BME280;31062;49.678;24.560;2024-03-29T15:15:36;97659.78;;;16.37;37.01
45327;BME280;31062;49.678;24.560;2024-03-29T15:18:41;97663.75;;;16.32;36.88
45327;BME280;31062;49.678;24.560;2024-03-29T15:21:46;97659.03;;;16.21;36.72
45327;BME280;31062;49.678;24.560;2024-03-29T15:24:51;97666.28;;;16.26;37.46
45327;BME280;31062;49.678;24.560;2024-03-29T15:27:55;97650.19;;;16.11;37.18
45327;BME280;31062;49.678;24.560;2024-03-29T15:30:55;97657.03;;;16.08;38.04
45327;BME280;31062;49.678;24.560;2024-03-29T15:34:00;97681.03;;;16.13;37.86
45327;BME280;31062;49.678;24.560;2024-03-29T15:37:05;97682.28;;;16.10;37.91